sensor_id;sensor_type;location;lat;lon;timestamp;P1;durP1;ratioP1;P2;durP2;ratioP2
12660;SDS011;39039;51.802;5.710;2023-04-23T00:00:56;146.80;;;76.97;;
12660;SDS011;39039;51.802;5.710;2023-04-23T00:03:26;159.77;;;75.50;;
12660;SDS011;39039;51.802;5.710;2023-04-23T00:05:54;145.33;;;75.93;;
12660;SDS011;39039;51.802;5.710;2023-04-23T00:08:23;168.23;;;74.10;;
12660;SDS011;39039;51.802;5.710;2023-04-23T00:10:50;177.87;;;79.23;;
12660;SDS011;39039;51.802;5.710;2023-04-23T00:13:19;282.47;;;90.23;;
12660;SDS011;39039;51.802;5.710;2023-04-23T00:15:46;206.47;;;81.37;;
12660;SDS011;39039;51.802;5.710;2023-04-23T00:18:13;255.83;;;88.53;;
12660;SDS011;39039;51.802;5.710;2023-04-23T00:20:41;140.43;;;74.37;;
12660;SDS011;39039;51.802;5.710;2023-04-23T00:23:08;226.30;;;86.13;;
12660;SDS011;39039;51.802;5.710;2023-04-23T00:25:35;146.07;;;73.07;;
12660;SDS011;39039;51.802;5.710;2023-04-23T00:28:02;184.37;;;81.97;;
12660;SDS011;39039;51.802;5.710;2023-04-23T00:30:30;143.07;;;72.87;;
12660;SDS011;39039;51.802;5.710;2023-04-23T00:32:57;165.50;;;74.63;;
12660;SDS011;39039;51.802;5.710;2023-04-23T00:35:24;175.73;;;76.43;;
12660;SDS011;39039;51.802;5.710;2023-04-23T00:37:51;193.23;;;76.70;;
12660;SDS011;39039;51.802;5.710;2023-04-23T00:40:18;142.80;;;71.30;;
12660;SDS011;39039;51.802;5.710;2023-04-23T00:42:45;266.50;;;84.90;;
12660;SDS011;39039;51.802;5.710;2023-04-23T00:45:13;178.33;;;79.13;;
12660;SDS011;39039;51.802;5.710;2023-04-23T00:47:41;154.23;;;70.77;;
12660;SDS011;39039;51.802;5.710;2023-04-23T00:50:08;152.77;;;77.87;;
12660;SDS011;39039;51.802;5.710;2023-04-23T00:52:37;218.77;;;82.27;;
12660;SDS011;39039;51.802;5.710;2023-04-23T00:55:05;158.53;;;75.03;;
12660;SDS011;39039;51.802;5.710;2023-04-23T00:57:32;242.23;;;83.90;;
12660;SDS011;39039;51.802;5.710;2023-04-23T00:59:59;172.90;;;73.53;;
12660;SDS011;39039;51.802;5.710;2023-04-23T01:02:26;153.97;;;71.00;;
12660;SDS011;39039;51.802;5.710;2023-04-23T01:04:57;336.03;;;91.13;;
12660;SDS011;39039;51.802;5.710;2023-04-23T01:07:26;175.07;;;72.43;;
12660;SDS011;39039;51.802;5.710;2023-04-23T01:09:53;243.50;;;79.63;;
12660;SDS011;39039;51.802;5.710;2023-04-23T01:12:21;189.67;;;78.10;;
12660;SDS011;39039;51.802;5.710;2023-04-23T01:14:48;319.17;;;88.13;;
12660;SDS011;39039;51.802;5.710;2023-04-23T01:17:15;149.97;;;71.03;;
12660;SDS011;39039;51.802;5.710;2023-04-23T01:19:42;275.03;;;81.90;;
12660;SDS011;39039;51.802;5.710;2023-04-23T01:22:11;289.73;;;89.60;;
12660;SDS011;39039;51.802;5.710;2023-04-23T01:24:38;203.17;;;85.83;;
12660;SDS011;39039;51.802;5.710;2023-04-23T01:27:06;184.90;;;80.60;;
12660;SDS011;39039;51.802;5.710;2023-04-23T01:29:33;202.60;;;81.23;;
12660;SDS011;39039;51.802;5.710;2023-04-23T01:32:00;142.60;;;69.67;;
12660;SDS011;39039;51.802;5.710;2023-04-23T01:34:28;188.33;;;78.17;;
12660;SDS011;39039;51.802;5.710;2023-04-23T01:36:56;183.40;;;75.17;;
12660;SDS011;39039;51.802;5.710;2023-04-23T01:39:24;158.30;;;75.70;;
12660;SDS011;39039;51.802;5.710;2023-04-23T01:41:52;136.50;;;73.73;;
12660;SDS011;39039;51.802;5.710;2023-04-23T01:44:19;248.67;;;83.27;;
12660;SDS011;39039;51.802;5.710;2023-04-23T01:46:46;297.43;;;92.40;;
12660;SDS011;39039;51.802;5.710;2023-04-23T01:49:13;210.27;;;87.63;;
12660;SDS011;39039;51.802;5.710;2023-04-23T01:51:41;264.60;;;92.03;;
12660;SDS011;39039;51.802;5.710;2023-04-23T01:54:08;187.13;;;79.67;;
12660;SDS011;39039;51.802;5.710;2023-04-23T01:56:36;252.90;;;87.23;;
12660;SDS011;39039;51.802;5.710;2023-04-23T01:59:04;316.63;;;91.83;;
12660;SDS011;39039;51.802;5.710;2023-04-23T02:01:41;250.50;;;88.20;;
12660;SDS011;39039;51.802;5.710;2023-04-23T02:04:09;414.87;;;101.50;;
12660;SDS011;39039;51.802;5.710;2023-04-23T02:06:36;258.73;;;88.57;;
12660;SDS011;39039;51.802;5.710;2023-04-23T02:09:03;254.37;;;93.33;;
12660;SDS011;39039;51.802;5.710;2023-04-23T02:11:31;194.47;;;80.03;;
12660;SDS011;39039;51.802;5.710;2023-04-23T02:13:59;251.17;;;91.17;;
12660;SDS011;39039;51.802;5.710;2023-04-23T02:16:26;168.07;;;81.80;;
12660;SDS011;39039;51.802;5.710;2023-04-23T02:18:53;170.03;;;85.30;;
12660;SDS011;39039;51.802;5.710;2023-04-23T02:21:21;232.60;;;89.13;;
12660;SDS011;39039;51.802;5.710;2023-04-23T02:23:48;145.27;;;76.27;;
12660;SDS011;39039;51.802;5.710;2023-04-23T02:26:15;225.57;;;91.00;;
12660;SDS011;39039;51.802;5.710;2023-04-23T02:28:42;284.50;;;97.87;;
12660;SDS011;39039;51.802;5.710;2023-04-23T02:31:11;241.27;;;88.13;;
12660;SDS011;39039;51.802;5.710;2023-04-23T02:33:38;248.40;;;88.37;;
12660;SDS011;39039;51.802;5.710;2023-04-23T02:36:05;232.73;;;85.63;;
12660;SDS011;39039;51.802;5.710;2023-04-23T02:38:32;317.83;;;92.17;;
12660;SDS011;39039;51.802;5.710;2023-04-23T02:40:59;257.10;;;87.27;;
12660;SDS011;39039;51.802;5.710;2023-04-23T02:43:26;188.20;;;79.80;;
12660;SDS011;39039;51.802;5.710;2023-04-23T02:45:54;171.00;;;75.87;;
12660;SDS011;39039;51.802;5.710;2023-04-23T02:48:22;205.57;;;87.13;;
12660;SDS011;39039;51.802;5.710;2023-04-23T02:50:51;210.90;;;84.23;;
12660;SDS011;39039;51.802;5.710;2023-04-23T02:53:18;165.03;;;80.60;;
12660;SDS011;39039;51.802;5.710;2023-04-23T02:55:44;253.13;;;87.90;;
12660;SDS011;39039;51.802;5.710;2023-04-23T02:58:12;139.77;;;71.47;;
12660;SDS011;39039;51.802;5.710;2023-04-23T03:00:39;133.97;;;72.83;;
12660;SDS011;39039;51.802;5.710;2023-04-23T03:03:06;291.73;;;91.10;;
12660;SDS011;39039;51.802;5.710;2023-04-23T03:05:34;183.47;;;78.87;;
12660;SDS011;39039;51.802;5.710;2023-04-23T03:08:01;213.90;;;79.50;;
12660;SDS011;39039;51.802;5.710;2023-04-23T03:10:28;203.10;;;76.50;;
12660;SDS011;39039;51.802;5.710;2023-04-23T03:12:55;236.57;;;83.77;;
12660;SDS011;39039;51.802;5.710;2023-04-23T03:15:22;121.17;;;65.23;;
12660;SDS011;39039;51.802;5.710;2023-04-23T03:17:51;139.90;;;67.60;;
12660;SDS011;39039;51.802;5.710;2023-04-23T03:20:18;164.60;;;75.80;;
12660;SDS011;39039;51.802;5.710;2023-04-23T03:22:46;148.37;;;77.83;;
12660;SDS011;39039;51.802;5.710;2023-04-23T03:25:14;145.63;;;79.00;;
12660;SDS011;39039;51.802;5.710;2023-04-23T03:27:40;120.20;;;81.20;;
12660;SDS011;39039;51.802;5.710;2023-04-23T03:30:08;105.03;;;73.47;;
12660;SDS011;39039;51.802;5.710;2023-04-23T03:32:37;173.67;;;89.73;;
12660;SDS011;39039;51.802;5.710;2023-04-23T03:35:04;215.70;;;103.77;;
12660;SDS011;39039;51.802;5.710;2023-04-23T03:37:33;173.63;;;93.30;;
12660;SDS011;39039;51.802;5.710;2023-04-23T03:40:02;163.63;;;85.13;;
12660;SDS011;39039;51.802;5.710;2023-04-23T03:42:31;147.60;;;86.47;;
12660;SDS011;39039;51.802;5.710;2023-04-23T03:44:58;106.00;;;78.47;;
12660;SDS011;39039;51.802;5.710;2023-04-23T03:47:25;138.93;;;91.40;;
12660;SDS011;39039;51.802;5.710;2023-04-23T03:49:53;111.93;;;79.03;;
12660;SDS011;39039;51.802;5.710;2023-04-23T03:52:20;136.63;;;82.97;;
12660;SDS011;39039;51.802;5.710;2023-04-23T03:54:47;120.10;;;80.07;;
12660;SDS011;39039;51.802;5.710;2023-04-23T03:57:16;95.53;;;66.93;;
12660;SDS011;39039;51.802;5.710;2023-04-23T03:59:43;101.93;;;62.30;;
12660;SDS011;39039;51.802;5.710;2023-04-23T04:02:10;116.47;;;75.07;;
12660;SDS011;39039;51.802;5.710;2023-04-23T04:04:37;114.10;;;80.07;;
12660;SDS011;39039;51.802;5.710;2023-04-23T04:07:06;153.37;;;75.53;;
12660;SDS011;39039;51.802;5.710;2023-04-23T04:09:36;124.03;;;74.67;;
12660;SDS011;39039;51.802;5.710;2023-04-23T04:12:03;144.83;;;81.37;;
12660;SDS011;39039;51.802;5.710;2023-04-23T04:14:32;125.50;;;74.87;;
12660;SDS011;39039;51.802;5.710;2023-04-23T04:16:59;147.50;;;81.10;;
12660;SDS011;39039;51.802;5.710;2023-04-23T04:19:26;124.87;;;72.20;;
12660;SDS011;39039;51.802;5.710;2023-04-23T04:21:53;144.57;;;77.20;;
12660;SDS011;39039;51.802;5.710;2023-04-23T04:24:20;91.57;;;68.20;;
12660;SDS011;39039;51.802;5.710;2023-04-23T04:26:49;113.07;;;71.67;;
12660;SDS011;39039;51.802;5.710;2023-04-23T04:29:18;192.57;;;80.20;;
12660;SDS011;39039;51.802;5.710;2023-04-23T04:31:46;96.27;;;64.70;;
12660;SDS011;39039;51.802;5.710;2023-04-23T04:34:13;215.00;;;81.63;;
12660;SDS011;39039;51.802;5.710;2023-04-23T04:36:42;141.60;;;67.40;;
12660;SDS011;39039;51.802;5.710;2023-04-23T04:39:09;161.13;;;71.03;;
12660;SDS011;39039;51.802;5.710;2023-04-23T04:41:37;156.87;;;69.00;;
12660;SDS011;39039;51.802;5.710;2023-04-23T04:44:05;149.70;;;72.10;;
12660;SDS011;39039;51.802;5.710;2023-04-23T04:46:32;98.83;;;57.90;;
12660;SDS011;39039;51.802;5.710;2023-04-23T04:49:05;120.00;;;64.77;;
12660;SDS011;39039;51.802;5.710;2023-04-23T04:51:33;94.87;;;58.43;;
12660;SDS011;39039;51.802;5.710;2023-04-23T04:54:00;101.67;;;59.10;;
12660;SDS011;39039;51.802;5.710;2023-04-23T04:56:27;101.83;;;61.47;;
12660;SDS011;39039;51.802;5.710;2023-04-23T04:58:55;111.83;;;64.03;;
12660;SDS011;39039;51.802;5.710;2023-04-23T05:01:22;88.07;;;59.57;;
12660;SDS011;39039;51.802;5.710;2023-04-23T05:03:50;98.10;;;66.40;;
12660;SDS011;39039;51.802;5.710;2023-04-23T05:06:19;85.20;;;63.83;;
12660;SDS011;39039;51.802;5.710;2023-04-23T05:08:46;111.13;;;67.20;;
12660;SDS011;39039;51.802;5.710;2023-04-23T05:11:13;155.67;;;80.70;;
12660;SDS011;39039;51.802;5.710;2023-04-23T05:13:40;87.83;;;64.13;;
12660;SDS011;39039;51.802;5.710;2023-04-23T05:16:07;82.83;;;62.67;;
12660;SDS011;39039;51.802;5.710;2023-04-23T05:18:35;68.03;;;52.53;;
12660;SDS011;39039;51.802;5.710;2023-04-23T05:21:03;64.63;;;52.77;;
12660;SDS011;39039;51.802;5.710;2023-04-23T05:23:33;78.73;;;53.63;;
12660;SDS011;39039;51.802;5.710;2023-04-23T05:26:00;97.60;;;61.63;;
12660;SDS011;39039;51.802;5.710;2023-04-23T05:28:28;99.23;;;60.47;;
12660;SDS011;39039;51.802;5.710;2023-04-23T05:30:55;73.67;;;55.33;;
12660;SDS011;39039;51.802;5.710;2023-04-23T05:33:22;61.47;;;48.73;;
12660;SDS011;39039;51.802;5.710;2023-04-23T05:35:50;60.53;;;48.13;;
12660;SDS011;39039;51.802;5.710;2023-04-23T05:38:16;74.50;;;53.17;;
12660;SDS011;39039;51.802;5.710;2023-04-23T05:40:45;60.97;;;47.07;;
12660;SDS011;39039;51.802;5.710;2023-04-23T05:43:12;57.63;;;45.53;;
12660;SDS011;39039;51.802;5.710;2023-04-23T05:45:39;65.83;;;50.30;;
12660;SDS011;39039;51.802;5.710;2023-04-23T05:48:07;66.97;;;51.20;;
12660;SDS011;39039;51.802;5.710;2023-04-23T05:50:34;51.90;;;42.80;;
12660;SDS011;39039;51.802;5.710;2023-04-23T05:53:01;59.13;;;45.57;;
12660;SDS011;39039;51.802;5.710;2023-04-23T05:55:28;58.60;;;47.87;;
12660;SDS011;39039;51.802;5.710;2023-04-23T05:57:56;48.23;;;42.53;;
12660;SDS011;39039;51.802;5.710;2023-04-23T06:00:23;51.00;;;42.17;;
12660;SDS011;39039;51.802;5.710;2023-04-23T06:02:50;55.07;;;49.27;;
12660;SDS011;39039;51.802;5.710;2023-04-23T06:05:17;43.03;;;38.43;;
12660;SDS011;39039;51.802;5.710;2023-04-23T06:07:45;49.97;;;44.63;;
12660;SDS011;39039;51.802;5.710;2023-04-23T06:10:12;44.23;;;40.03;;
12660;SDS011;39039;51.802;5.710;2023-04-23T06:12:39;44.27;;;39.77;;
12660;SDS011;39039;51.802;5.710;2023-04-23T06:15:08;48.20;;;42.97;;
12660;SDS011;39039;51.802;5.710;2023-04-23T06:17:35;40.20;;;36.33;;
12660;SDS011;39039;51.802;5.710;2023-04-23T06:20:03;42.10;;;37.97;;
12660;SDS011;39039;51.802;5.710;2023-04-23T06:22:30;37.13;;;33.33;;
12660;SDS011;39039;51.802;5.710;2023-04-23T06:24:57;40.93;;;37.13;;
12660;SDS011;39039;51.802;5.710;2023-04-23T06:27:24;39.80;;;36.10;;
12660;SDS011;39039;51.802;5.710;2023-04-23T06:29:51;38.20;;;34.57;;
12660;SDS011;39039;51.802;5.710;2023-04-23T06:32:20;36.93;;;33.53;;
12660;SDS011;39039;51.802;5.710;2023-04-23T06:34:47;38.30;;;34.60;;
12660;SDS011;39039;51.802;5.710;2023-04-23T06:37:14;36.17;;;32.90;;
12660;SDS011;39039;51.802;5.710;2023-04-23T06:39:41;32.47;;;29.67;;
12660;SDS011;39039;51.802;5.710;2023-04-23T06:42:08;31.87;;;29.23;;
12660;SDS011;39039;51.802;5.710;2023-04-23T06:44:35;32.37;;;29.27;;
12660;SDS011;39039;51.802;5.710;2023-04-23T06:47:02;32.13;;;29.57;;
12660;SDS011;39039;51.802;5.710;2023-04-23T06:49:30;31.77;;;29.17;;
12660;SDS011;39039;51.802;5.710;2023-04-23T06:51:57;33.30;;;30.37;;
12660;SDS011;39039;51.802;5.710;2023-04-23T06:54:24;31.47;;;28.73;;
12660;SDS011;39039;51.802;5.710;2023-04-23T06:56:52;30.47;;;28.07;;
12660;SDS011;39039;51.802;5.710;2023-04-23T06:59:19;35.20;;;32.27;;
12660;SDS011;39039;51.802;5.710;2023-04-23T07:01:46;32.87;;;30.20;;
12660;SDS011;39039;51.802;5.710;2023-04-23T07:04:13;30.93;;;28.37;;
12660;SDS011;39039;51.802;5.710;2023-04-23T07:06:41;32.10;;;29.43;;
12660;SDS011;39039;51.802;5.710;2023-04-23T07:09:08;31.80;;;29.40;;
12660;SDS011;39039;51.802;5.710;2023-04-23T07:11:35;27.20;;;25.00;;
12660;SDS011;39039;51.802;5.710;2023-04-23T07:14:03;28.50;;;26.10;;
12660;SDS011;39039;51.802;5.710;2023-04-23T07:16:30;28.50;;;26.30;;
12660;SDS011;39039;51.802;5.710;2023-04-23T07:18:58;28.80;;;26.33;;
12660;SDS011;39039;51.802;5.710;2023-04-23T07:21:26;28.30;;;26.10;;
12660;SDS011;39039;51.802;5.710;2023-04-23T07:23:54;26.83;;;24.43;;
12660;SDS011;39039;51.802;5.710;2023-04-23T07:26:22;28.10;;;25.63;;
12660;SDS011;39039;51.802;5.710;2023-04-23T07:28:50;27.33;;;25.03;;
12660;SDS011;39039;51.802;5.710;2023-04-23T07:31:17;28.10;;;25.80;;
12660;SDS011;39039;51.802;5.710;2023-04-23T07:33:45;26.63;;;24.27;;
12660;SDS011;39039;51.802;5.710;2023-04-23T07:36:12;26.63;;;24.43;;
12660;SDS011;39039;51.802;5.710;2023-04-23T07:38:39;27.50;;;25.43;;
12660;SDS011;39039;51.802;5.710;2023-04-23T07:41:07;26.53;;;24.37;;
12660;SDS011;39039;51.802;5.710;2023-04-23T07:43:34;23.83;;;21.98;;
12660;SDS011;39039;51.802;5.710;2023-04-23T07:46:01;22.73;;;20.92;;
12660;SDS011;39039;51.802;5.710;2023-04-23T07:48:29;22.80;;;20.80;;
12660;SDS011;39039;51.802;5.710;2023-04-23T07:50:56;27.77;;;25.70;;
12660;SDS011;39039;51.802;5.710;2023-04-23T07:53:23;22.50;;;20.52;;
12660;SDS011;39039;51.802;5.710;2023-04-23T07:55:52;26.60;;;24.30;;
12660;SDS011;39039;51.802;5.710;2023-04-23T07:58:21;27.48;;;24.92;;
12660;SDS011;39039;51.802;5.710;2023-04-23T08:00:48;25.08;;;23.15;;
12660;SDS011;39039;51.802;5.710;2023-04-23T08:03:15;32.35;;;30.08;;
12660;SDS011;39039;51.802;5.710;2023-04-23T08:05:42;24.90;;;23.10;;
12660;SDS011;39039;51.802;5.710;2023-04-23T08:08:10;24.83;;;22.85;;
12660;SDS011;39039;51.802;5.710;2023-04-23T08:10:37;22.95;;;21.10;;
12660;SDS011;39039;51.802;5.710;2023-04-23T08:13:04;26.42;;;24.45;;
12660;SDS011;39039;51.802;5.710;2023-04-23T08:15:33;23.58;;;21.88;;
12660;SDS011;39039;51.802;5.710;2023-04-23T08:18:00;23.73;;;21.73;;
12660;SDS011;39039;51.802;5.710;2023-04-23T08:20:27;20.20;;;18.75;;
12660;SDS011;39039;51.802;5.710;2023-04-23T08:22:54;21.13;;;19.38;;
12660;SDS011;39039;51.802;5.710;2023-04-23T08:25:21;21.92;;;19.98;;
12660;SDS011;39039;51.802;5.710;2023-04-23T08:27:48;22.83;;;21.15;;
12660;SDS011;39039;51.802;5.710;2023-04-23T08:30:15;23.02;;;21.13;;
12660;SDS011;39039;51.802;5.710;2023-04-23T08:32:45;27.00;;;25.30;;
12660;SDS011;39039;51.802;5.710;2023-04-23T08:35:14;31.48;;;29.58;;
12660;SDS011;39039;51.802;5.710;2023-04-23T08:37:41;22.50;;;20.73;;
12660;SDS011;39039;51.802;5.710;2023-04-23T08:40:08;19.73;;;18.30;;
12660;SDS011;39039;51.802;5.710;2023-04-23T08:42:36;19.55;;;18.13;;
12660;SDS011;39039;51.802;5.710;2023-04-23T08:45:04;28.73;;;26.80;;
12660;SDS011;39039;51.802;5.710;2023-04-23T08:47:31;27.73;;;25.73;;
12660;SDS011;39039;51.802;5.710;2023-04-23T08:50:01;23.23;;;21.60;;
12660;SDS011;39039;51.802;5.710;2023-04-23T08:52:33;22.42;;;20.63;;
12660;SDS011;39039;51.802;5.710;2023-04-23T08:55:00;24.20;;;22.52;;
12660;SDS011;39039;51.802;5.710;2023-04-23T08:57:28;27.27;;;25.38;;
12660;SDS011;39039;51.802;5.710;2023-04-23T08:59:56;24.02;;;22.17;;
12660;SDS011;39039;51.802;5.710;2023-04-23T09:02:24;22.27;;;20.40;;
12660;SDS011;39039;51.802;5.710;2023-04-23T09:04:51;18.60;;;17.13;;
12660;SDS011;39039;51.802;5.710;2023-04-23T09:07:20;22.27;;;20.35;;
12660;SDS011;39039;51.802;5.710;2023-04-23T09:09:47;18.30;;;16.88;;
12660;SDS011;39039;51.802;5.710;2023-04-23T09:12:14;20.58;;;18.63;;
12660;SDS011;39039;51.802;5.710;2023-04-23T09:14:41;18.30;;;16.52;;
12660;SDS011;39039;51.802;5.710;2023-04-23T09:17:08;19.15;;;17.80;;
12660;SDS011;39039;51.802;5.710;2023-04-23T09:19:35;34.35;;;31.92;;
12660;SDS011;39039;51.802;5.710;2023-04-23T09:22:05;21.70;;;20.00;;
12660;SDS011;39039;51.802;5.710;2023-04-23T09:24:35;20.58;;;18.83;;
12660;SDS011;39039;51.802;5.710;2023-04-23T09:27:02;22.92;;;21.00;;
12660;SDS011;39039;51.802;5.710;2023-04-23T09:29:30;21.50;;;19.73;;
12660;SDS011;39039;51.802;5.710;2023-04-23T09:32:06;20.35;;;18.50;;
12660;SDS011;39039;51.802;5.710;2023-04-23T09:34:34;19.77;;;18.33;;
12660;SDS011;39039;51.802;5.710;2023-04-23T09:37:01;25.00;;;22.98;;
12660;SDS011;39039;51.802;5.710;2023-04-23T09:39:30;22.35;;;20.27;;
12660;SDS011;39039;51.802;5.710;2023-04-23T09:42:02;21.67;;;19.95;;
12660;SDS011;39039;51.802;5.710;2023-04-23T09:44:32;20.55;;;19.05;;
12660;SDS011;39039;51.802;5.710;2023-04-23T09:47:04;27.95;;;25.83;;
12660;SDS011;39039;51.802;5.710;2023-04-23T09:49:35;21.08;;;19.55;;
12660;SDS011;39039;51.802;5.710;2023-04-23T09:52:10;22.95;;;21.25;;
12660;SDS011;39039;51.802;5.710;2023-04-23T09:54:37;23.20;;;21.48;;
12660;SDS011;39039;51.802;5.710;2023-04-23T09:57:05;18.77;;;17.20;;
12660;SDS011;39039;51.802;5.710;2023-04-23T09:59:33;22.55;;;20.60;;
12660;SDS011;39039;51.802;5.710;2023-04-23T10:02:01;23.48;;;21.73;;
12660;SDS011;39039;51.802;5.710;2023-04-23T10:04:29;21.17;;;18.52;;
12660;SDS011;39039;51.802;5.710;2023-04-23T10:06:57;21.50;;;19.92;;
12660;SDS011;39039;51.802;5.710;2023-04-23T10:09:25;16.33;;;14.98;;
12660;SDS011;39039;51.802;5.710;2023-04-23T10:11:53;16.50;;;15.18;;
12660;SDS011;39039;51.802;5.710;2023-04-23T10:14:22;18.10;;;16.83;;
12660;SDS011;39039;51.802;5.710;2023-04-23T10:16:49;16.70;;;15.52;;
12660;SDS011;39039;51.802;5.710;2023-04-23T10:19:18;17.00;;;15.85;;
12660;SDS011;39039;51.802;5.710;2023-04-23T10:21:47;20.38;;;18.98;;
12660;SDS011;39039;51.802;5.710;2023-04-23T10:24:15;19.48;;;18.00;;
12660;SDS011;39039;51.802;5.710;2023-04-23T10:26:44;19.27;;;17.77;;
12660;SDS011;39039;51.802;5.710;2023-04-23T10:29:12;19.00;;;17.60;;
12660;SDS011;39039;51.802;5.710;2023-04-23T10:31:42;22.75;;;21.45;;
12660;SDS011;39039;51.802;5.710;2023-04-23T10:34:09;20.85;;;19.35;;
12660;SDS011;39039;51.802;5.710;2023-04-23T10:36:37;16.92;;;15.65;;
12660;SDS011;39039;51.802;5.710;2023-04-23T10:39:04;18.27;;;16.75;;
12660;SDS011;39039;51.802;5.710;2023-04-23T10:41:34;18.98;;;17.42;;
12660;SDS011;39039;51.802;5.710;2023-04-23T10:44:02;24.98;;;23.30;;
12660;SDS011;39039;51.802;5.710;2023-04-23T10:46:30;23.73;;;22.20;;
12660;SDS011;39039;51.802;5.710;2023-04-23T10:49:09;19.48;;;18.35;;
12660;SDS011;39039;51.802;5.710;2023-04-23T10:51:38;20.83;;;19.15;;
12660;SDS011;39039;51.802;5.710;2023-04-23T10:54:06;19.42;;;18.13;;
12660;SDS011;39039;51.802;5.710;2023-04-23T10:56:36;17.00;;;15.70;;
12660;SDS011;39039;51.802;5.710;2023-04-23T10:59:04;16.55;;;15.20;;
12660;SDS011;39039;51.802;5.710;2023-04-23T11:01:32;30.33;;;28.20;;
12660;SDS011;39039;51.802;5.710;2023-04-23T11:04:03;19.17;;;17.98;;
12660;SDS011;39039;51.802;5.710;2023-04-23T11:06:52;17.80;;;16.60;;
12660;SDS011;39039;51.802;5.710;2023-04-23T11:09:29;24.30;;;22.48;;
12660;SDS011;39039;51.802;5.710;2023-04-23T11:11:57;16.30;;;15.10;;
12660;SDS011;39039;51.802;5.710;2023-04-23T11:14:42;20.80;;;19.30;;
12660;SDS011;39039;51.802;5.710;2023-04-23T11:17:12;15.93;;;14.73;;
12660;SDS011;39039;51.802;5.710;2023-04-23T11:19:40;26.15;;;24.55;;
12660;SDS011;39039;51.802;5.710;2023-04-23T11:22:13;20.65;;;19.15;;
12660;SDS011;39039;51.802;5.710;2023-04-23T11:24:41;20.70;;;19.38;;
12660;SDS011;39039;51.802;5.710;2023-04-23T11:27:10;24.42;;;22.65;;
12660;SDS011;39039;51.802;5.710;2023-04-23T11:29:39;23.67;;;22.20;;
12660;SDS011;39039;51.802;5.710;2023-04-23T11:32:06;18.75;;;17.42;;
12660;SDS011;39039;51.802;5.710;2023-04-23T11:34:37;26.35;;;24.45;;
12660;SDS011;39039;51.802;5.710;2023-04-23T11:37:04;22.73;;;21.17;;
12660;SDS011;39039;51.802;5.710;2023-04-23T11:39:35;19.38;;;17.88;;
12660;SDS011;39039;51.802;5.710;2023-04-23T11:42:02;19.75;;;18.50;;
12660;SDS011;39039;51.802;5.710;2023-04-23T11:44:30;19.90;;;18.30;;
12660;SDS011;39039;51.802;5.710;2023-04-23T11:47:00;15.43;;;14.52;;
12660;SDS011;39039;51.802;5.710;2023-04-23T11:49:27;20.35;;;19.10;;
12660;SDS011;39039;51.802;5.710;2023-04-23T11:51:57;17.83;;;16.35;;
12660;SDS011;39039;51.802;5.710;2023-04-23T11:54:26;23.02;;;21.70;;
12660;SDS011;39039;51.802;5.710;2023-04-23T11:56:54;22.55;;;21.15;;
12660;SDS011;39039;51.802;5.710;2023-04-23T11:59:23;19.02;;;17.67;;
12660;SDS011;39039;51.802;5.710;2023-04-23T12:01:51;22.33;;;20.90;;
12660;SDS011;39039;51.802;5.710;2023-04-23T12:04:19;22.27;;;20.85;;
12660;SDS011;39039;51.802;5.710;2023-04-23T12:06:47;23.60;;;22.10;;
12660;SDS011;39039;51.802;5.710;2023-04-23T12:09:15;19.48;;;17.88;;
12660;SDS011;39039;51.802;5.710;2023-04-23T12:11:44;23.02;;;21.52;;
12660;SDS011;39039;51.802;5.710;2023-04-23T12:14:13;21.33;;;20.02;;
12660;SDS011;39039;51.802;5.710;2023-04-23T12:16:40;21.80;;;20.42;;
12660;SDS011;39039;51.802;5.710;2023-04-23T12:19:08;21.30;;;19.80;;
12660;SDS011;39039;51.802;5.710;2023-04-23T12:21:46;22.65;;;21.25;;
12660;SDS011;39039;51.802;5.710;2023-04-23T12:24:13;19.35;;;17.83;;
12660;SDS011;39039;51.802;5.710;2023-04-23T12:26:40;21.75;;;20.35;;
12660;SDS011;39039;51.802;5.710;2023-04-23T12:29:07;19.45;;;18.17;;
12660;SDS011;39039;51.802;5.710;2023-04-23T12:31:36;17.38;;;16.13;;
12660;SDS011;39039;51.802;5.710;2023-04-23T12:34:04;16.75;;;15.43;;
12660;SDS011;39039;51.802;5.710;2023-04-23T12:36:33;16.00;;;14.80;;
12660;SDS011;39039;51.802;5.710;2023-04-23T12:41:47;16.00;;;14.82;;
12660;SDS011;39039;51.802;5.710;2023-04-23T12:44:14;15.90;;;14.80;;
12660;SDS011;39039;51.802;5.710;2023-04-23T12:46:43;17.17;;;16.08;;
12660;SDS011;39039;51.802;5.710;2023-04-23T12:49:10;20.85;;;19.65;;
12660;SDS011;39039;51.802;5.710;2023-04-23T12:51:37;22.65;;;21.08;;
12660;SDS011;39039;51.802;5.710;2023-04-23T12:54:04;16.90;;;15.80;;
12660;SDS011;39039;51.802;5.710;2023-04-23T12:56:31;17.00;;;16.10;;
12660;SDS011;39039;51.802;5.710;2023-04-23T12:59:00;15.57;;;14.48;;
12660;SDS011;39039;51.802;5.710;2023-04-23T13:01:29;19.40;;;18.25;;
12660;SDS011;39039;51.802;5.710;2023-04-23T13:03:57;16.90;;;15.70;;
12660;SDS011;39039;51.802;5.710;2023-04-23T13:06:24;16.98;;;15.88;;
12660;SDS011;39039;51.802;5.710;2023-04-23T13:08:53;15.07;;;14.18;;
12660;SDS011;39039;51.802;5.710;2023-04-23T13:11:21;16.10;;;15.00;;
12660;SDS011;39039;51.802;5.710;2023-04-23T13:13:48;15.00;;;13.82;;
12660;SDS011;39039;51.802;5.710;2023-04-23T13:16:15;14.13;;;13.15;;
12660;SDS011;39039;51.802;5.710;2023-04-23T13:18:42;16.60;;;15.60;;
12660;SDS011;39039;51.802;5.710;2023-04-23T13:21:12;15.18;;;14.23;;
12660;SDS011;39039;51.802;5.710;2023-04-23T13:23:40;14.40;;;13.50;;
12660;SDS011;39039;51.802;5.710;2023-04-23T13:26:07;17.65;;;16.55;;
12660;SDS011;39039;51.802;5.710;2023-04-23T13:28:34;20.20;;;19.10;;
12660;SDS011;39039;51.802;5.710;2023-04-23T13:31:01;18.42;;;17.38;;
12660;SDS011;39039;51.802;5.710;2023-04-23T13:33:28;22.77;;;21.48;;
12660;SDS011;39039;51.802;5.710;2023-04-23T13:35:56;24.33;;;23.05;;
12660;SDS011;39039;51.802;5.710;2023-04-23T13:38:24;21.45;;;20.15;;
12660;SDS011;39039;51.802;5.710;2023-04-23T13:40:51;21.13;;;19.77;;
12660;SDS011;39039;51.802;5.710;2023-04-23T13:43:19;21.95;;;20.48;;
12660;SDS011;39039;51.802;5.710;2023-04-23T13:45:45;27.98;;;26.08;;
12660;SDS011;39039;51.802;5.710;2023-04-23T13:48:13;20.45;;;19.23;;
12660;SDS011;39039;51.802;5.710;2023-04-23T13:50:40;22.58;;;21.10;;
12660;SDS011;39039;51.802;5.710;2023-04-23T13:53:09;26.23;;;24.65;;
12660;SDS011;39039;51.802;5.710;2023-04-23T13:55:37;25.73;;;24.23;;
12660;SDS011;39039;51.802;5.710;2023-04-23T13:58:05;21.55;;;20.20;;
12660;SDS011;39039;51.802;5.710;2023-04-23T14:00:32;20.15;;;18.85;;
12660;SDS011;39039;51.802;5.710;2023-04-23T14:02:59;25.60;;;24.10;;
12660;SDS011;39039;51.802;5.710;2023-04-23T14:05:26;22.52;;;21.13;;
12660;SDS011;39039;51.802;5.710;2023-04-23T14:07:53;20.95;;;19.65;;
12660;SDS011;39039;51.802;5.710;2023-04-23T14:10:21;25.73;;;23.83;;
12660;SDS011;39039;51.802;5.710;2023-04-23T14:12:49;26.92;;;25.15;;
12660;SDS011;39039;51.802;5.710;2023-04-23T14:15:16;26.27;;;24.52;;
12660;SDS011;39039;51.802;5.710;2023-04-23T14:17:43;27.85;;;26.30;;
12660;SDS011;39039;51.802;5.710;2023-04-23T14:20:11;28.63;;;26.98;;
12660;SDS011;39039;51.802;5.710;2023-04-23T14:22:39;25.60;;;24.08;;